sensor_id;sensor_type;location;lat;lon;timestamp;P1;durP1;ratioP1;P2;durP2;ratioP2
29570;SDS011;16814;52.118;11.436;2023-04-25T00:01:33;11.45;;;5.00;;
29570;SDS011;16814;52.118;11.436;2023-04-25T00:04:05;12.47;;;5.37;;
29570;SDS011;16814;52.118;11.436;2023-04-25T00:06:33;11.95;;;5.10;;
29570;SDS011;16814;52.118;11.436;2023-04-25T00:09:02;11.50;;;5.40;;
29570;SDS011;16814;52.118;11.436;2023-04-25T00:11:33;13.93;;;5.63;;
29570;SDS011;16814;52.118;11.436;2023-04-25T00:13:59;13.35;;;5.28;;
29570;SDS011;16814;52.118;11.436;2023-04-25T00:16:28;11.68;;;5.55;;
29570;SDS011;16814;52.118;11.436;2023-04-25T00:18:59;16.00;;;5.50;;
29570;SDS011;16814;52.118;11.436;2023-04-25T00:21:28;13.48;;;5.78;;
29570;SDS011;16814;52.118;11.436;2023-04-25T00:23:56;14.75;;;5.97;;
29570;SDS011;16814;52.118;11.436;2023-04-25T00:26:25;16.75;;;6.25;;
29570;SDS011;16814;52.118;11.436;2023-04-25T00:28:50;13.32;;;5.90;;
29570;SDS011;16814;52.118;11.436;2023-04-25T00:31:17;16.30;;;6.27;;
29570;SDS011;16814;52.118;11.436;2023-04-25T00:33:45;15.88;;;5.90;;
29570;SDS011;16814;52.118;11.436;2023-04-25T00:36:11;18.70;;;6.43;;
29570;SDS011;16814;52.118;11.436;2023-04-25T00:38:37;15.93;;;6.13;;
29570;SDS011;16814;52.118;11.436;2023-04-25T00:41:05;13.50;;;5.90;;
29570;SDS011;16814;52.118;11.436;2023-04-25T00:43:33;14.23;;;6.13;;
29570;SDS011;16814;52.118;11.436;2023-04-25T00:46:03;14.80;;;6.30;;
29570;SDS011;16814;52.118;11.436;2023-04-25T00:48:28;17.17;;;6.20;;
29570;SDS011;16814;52.118;11.436;2023-04-25T00:50:57;15.15;;;6.28;;
29570;SDS011;16814;52.118;11.436;2023-04-25T00:53:25;12.10;;;5.57;;
29570;SDS011;16814;52.118;11.436;2023-04-25T00:55:53;15.07;;;6.40;;
29570;SDS011;16814;52.118;11.436;2023-04-25T00:58:20;15.90;;;6.00;;
29570;SDS011;16814;52.118;11.436;2023-04-25T01:00:49;18.30;;;6.50;;
29570;SDS011;16814;52.118;11.436;2023-04-25T01:03:26;14.40;;;6.60;;
29570;SDS011;16814;52.118;11.436;2023-04-25T01:05:55;20.98;;;6.47;;
29570;SDS011;16814;52.118;11.436;2023-04-25T01:08:23;17.92;;;6.40;;
29570;SDS011;16814;52.118;11.436;2023-04-25T01:10:50;14.47;;;6.00;;
29570;SDS011;16814;52.118;11.436;2023-04-25T01:13:17;14.82;;;6.00;;
29570;SDS011;16814;52.118;11.436;2023-04-25T01:15:45;12.93;;;6.07;;
29570;SDS011;16814;52.118;11.436;2023-04-25T01:18:13;17.88;;;6.40;;
29570;SDS011;16814;52.118;11.436;2023-04-25T01:20:43;17.40;;;6.30;;
29570;SDS011;16814;52.118;11.436;2023-04-25T01:23:10;16.02;;;5.80;;
29570;SDS011;16814;52.118;11.436;2023-04-25T01:25:38;16.27;;;5.90;;
29570;SDS011;16814;52.118;11.436;2023-04-25T01:28:06;24.15;;;6.25;;
29570;SDS011;16814;52.118;11.436;2023-04-25T01:30:32;15.27;;;5.55;;
29570;SDS011;16814;52.118;11.436;2023-04-25T01:33:01;14.90;;;5.20;;
29570;SDS011;16814;52.118;11.436;2023-04-25T01:35:31;14.57;;;5.78;;
29570;SDS011;16814;52.118;11.436;2023-04-25T01:37:57;16.33;;;5.80;;
29570;SDS011;16814;52.118;11.436;2023-04-25T01:40:25;17.20;;;6.03;;
29570;SDS011;16814;52.118;11.436;2023-04-25T01:42:53;13.30;;;5.57;;
29570;SDS011;16814;52.118;11.436;2023-04-25T01:45:21;16.58;;;5.57;;
29570;SDS011;16814;52.118;11.436;2023-04-25T01:47:47;17.17;;;5.95;;
29570;SDS011;16814;52.118;11.436;2023-04-25T01:50:16;14.15;;;5.90;;
29570;SDS011;16814;52.118;11.436;2023-04-25T01:52:43;18.38;;;5.75;;
29570;SDS011;16814;52.118;11.436;2023-04-25T01:55:10;16.40;;;6.07;;
29570;SDS011;16814;52.118;11.436;2023-04-25T01:57:48;16.55;;;5.95;;
29570;SDS011;16814;52.118;11.436;2023-04-25T02:00:15;18.92;;;5.75;;
29570;SDS011;16814;52.118;11.436;2023-04-25T02:02:43;12.88;;;5.57;;
29570;SDS011;16814;52.118;11.436;2023-04-25T02:05:09;20.00;;;6.30;;
29570;SDS011;16814;52.118;11.436;2023-04-25T02:07:43;15.20;;;5.60;;
29570;SDS011;16814;52.118;11.436;2023-04-25T02:10:10;15.27;;;5.87;;
29570;SDS011;16814;52.118;11.436;2023-04-25T02:12:39;18.38;;;6.18;;
29570;SDS011;16814;52.118;11.436;2023-04-25T02:15:06;14.32;;;5.60;;
29570;SDS011;16814;52.118;11.436;2023-04-25T02:17:32;21.05;;;5.75;;
29570;SDS011;16814;52.118;11.436;2023-04-25T02:19:58;22.65;;;5.85;;
29570;SDS011;16814;52.118;11.436;2023-04-25T02:22:25;19.13;;;5.70;;
29570;SDS011;16814;52.118;11.436;2023-04-25T02:24:57;20.80;;;5.80;;
29570;SDS011;16814;52.118;11.436;2023-04-25T02:27:24;13.93;;;5.10;;
29570;SDS011;16814;52.118;11.436;2023-04-25T02:29:50;17.30;;;5.38;;
29570;SDS011;16814;52.118;11.436;2023-04-25T02:32:19;23.70;;;5.55;;
29570;SDS011;16814;52.118;11.436;2023-04-25T02:34:47;17.27;;;5.80;;
29570;SDS011;16814;52.118;11.436;2023-04-25T02:37:16;17.13;;;5.60;;
29570;SDS011;16814;52.118;11.436;2023-04-25T02:39:43;15.43;;;5.90;;
29570;SDS011;16814;52.118;11.436;2023-04-25T02:42:11;15.50;;;5.78;;
29570;SDS011;16814;52.118;11.436;2023-04-25T02:44:38;14.10;;;6.03;;
29570;SDS011;16814;52.118;11.436;2023-04-25T02:47:06;16.33;;;6.05;;
29570;SDS011;16814;52.118;11.436;2023-04-25T02:49:33;20.10;;;6.43;;
29570;SDS011;16814;52.118;11.436;2023-04-25T02:51:59;19.42;;;6.28;;
29570;SDS011;16814;52.118;11.436;2023-04-25T02:54:26;20.20;;;6.22;;
29570;SDS011;16814;52.118;11.436;2023-04-25T02:56:53;15.85;;;6.28;;
29570;SDS011;16814;52.118;11.436;2023-04-25T02:59:20;20.17;;;6.40;;
29570;SDS011;16814;52.118;11.436;2023-04-25T03:01:45;18.73;;;6.93;;
29570;SDS011;16814;52.118;11.436;2023-04-25T03:04:12;17.40;;;6.38;;
29570;SDS011;16814;52.118;11.436;2023-04-25T03:06:38;16.00;;;6.43;;
29570;SDS011;16814;52.118;11.436;2023-04-25T03:09:05;16.80;;;6.45;;
29570;SDS011;16814;52.118;11.436;2023-04-25T03:11:33;15.05;;;6.13;;
29570;SDS011;16814;52.118;11.436;2023-04-25T03:13:59;18.08;;;6.72;;
29570;SDS011;16814;52.118;11.436;2023-04-25T03:16:26;21.23;;;6.30;;
29570;SDS011;16814;52.118;11.436;2023-04-25T03:18:52;15.93;;;6.47;;
29570;SDS011;16814;52.118;11.436;2023-04-25T03:21:19;23.42;;;6.88;;
29570;SDS011;16814;52.118;11.436;2023-04-25T03:23:45;18.93;;;6.57;;
29570;SDS011;16814;52.118;11.436;2023-04-25T03:26:12;18.27;;;6.68;;
29570;SDS011;16814;52.118;11.436;2023-04-25T03:28:38;21.20;;;7.03;;
29570;SDS011;16814;52.118;11.436;2023-04-25T03:31:07;16.80;;;6.85;;
29570;SDS011;16814;52.118;11.436;2023-04-25T03:33:32;17.52;;;6.95;;
29570;SDS011;16814;52.118;11.436;2023-04-25T03:35:58;17.73;;;6.87;;
29570;SDS011;16814;52.118;11.436;2023-04-25T03:38:25;18.60;;;7.22;;
29570;SDS011;16814;52.118;11.436;2023-04-25T03:40:53;15.27;;;6.93;;
29570;SDS011;16814;52.118;11.436;2023-04-25T03:43:22;19.48;;;7.65;;
29570;SDS011;16814;52.118;11.436;2023-04-25T03:45:49;15.60;;;6.70;;
29570;SDS011;16814;52.118;11.436;2023-04-25T03:48:17;18.83;;;7.40;;
29570;SDS011;16814;52.118;11.436;2023-04-25T03:50:47;23.88;;;7.47;;
29570;SDS011;16814;52.118;11.436;2023-04-25T03:53:17;19.77;;;7.00;;
29570;SDS011;16814;52.118;11.436;2023-04-25T03:55:45;21.63;;;7.85;;
29570;SDS011;16814;52.118;11.436;2023-04-25T03:58:11;19.20;;;7.22;;
29570;SDS011;16814;52.118;11.436;2023-04-25T04:00:37;21.92;;;7.05;;
29570;SDS011;16814;52.118;11.436;2023-04-25T04:03:05;17.80;;;6.88;;
29570;SDS011;16814;52.118;11.436;2023-04-25T04:05:32;22.42;;;7.35;;
29570;SDS011;16814;52.118;11.436;2023-04-25T04:07:58;19.05;;;7.93;;
29570;SDS011;16814;52.118;11.436;2023-04-25T04:10:26;22.92;;;7.65;;
29570;SDS011;16814;52.118;11.436;2023-04-25T04:12:55;24.48;;;8.02;;
29570;SDS011;16814;52.118;11.436;2023-04-25T04:15:23;24.50;;;7.78;;
29570;SDS011;16814;52.118;11.436;2023-04-25T04:17:51;18.27;;;8.00;;
29570;SDS011;16814;52.118;11.436;2023-04-25T04:20:16;22.92;;;8.18;;
29570;SDS011;16814;52.118;11.436;2023-04-25T04:22:43;17.38;;;7.57;;
29570;SDS011;16814;52.118;11.436;2023-04-25T04:25:10;19.30;;;7.77;;
29570;SDS011;16814;52.118;11.436;2023-04-25T04:27:37;25.23;;;8.97;;
29570;SDS011;16814;52.118;11.436;2023-04-25T04:30:06;17.80;;;8.52;;
29570;SDS011;16814;52.118;11.436;2023-04-25T04:32:32;25.92;;;9.13;;
29570;SDS011;16814;52.118;11.436;2023-04-25T04:35:00;21.98;;;8.57;;
29570;SDS011;16814;52.118;11.436;2023-04-25T04:37:29;21.35;;;8.48;;
29570;SDS011;16814;52.118;11.436;2023-04-25T04:39:56;45.17;;;9.02;;
29570;SDS011;16814;52.118;11.436;2023-04-25T04:42:22;36.90;;;9.93;;
29570;SDS011;16814;52.118;11.436;2023-04-25T04:44:59;86.45;;;12.10;;
29570;SDS011;16814;52.118;11.436;2023-04-25T04:47:26;53.33;;;10.32;;
29570;SDS011;16814;52.118;11.436;2023-04-25T04:49:56;46.65;;;10.65;;
29570;SDS011;16814;52.118;11.436;2023-04-25T04:52:24;59.40;;;12.32;;
29570;SDS011;16814;52.118;11.436;2023-04-25T04:54:51;42.88;;;10.93;;
29570;SDS011;16814;52.118;11.436;2023-04-25T04:57:18;24.50;;;10.10;;
29570;SDS011;16814;52.118;11.436;2023-04-25T04:59:55;26.95;;;10.57;;
29570;SDS011;16814;52.118;11.436;2023-04-25T05:02:20;40.42;;;11.60;;
29570;SDS011;16814;52.118;11.436;2023-04-25T05:04:50;29.75;;;10.88;;
29570;SDS011;16814;52.118;11.436;2023-04-25T05:07:18;28.98;;;11.27;;
29570;SDS011;16814;52.118;11.436;2023-04-25T05:09:45;23.40;;;11.02;;
29570;SDS011;16814;52.118;11.436;2023-04-25T05:12:13;24.73;;;10.60;;
29570;SDS011;16814;52.118;11.436;2023-04-25T05:14:41;24.85;;;11.65;;
29570;SDS011;16814;52.118;11.436;2023-04-25T05:17:09;27.73;;;11.70;;
29570;SDS011;16814;52.118;11.436;2023-04-25T05:19:36;24.58;;;10.90;;
29570;SDS011;16814;52.118;11.436;2023-04-25T05:22:04;35.22;;;11.55;;
29570;SDS011;16814;52.118;11.436;2023-04-25T05:24:32;27.73;;;10.32;;
29570;SDS011;16814;52.118;11.436;2023-04-25T05:26:59;31.20;;;10.57;;
29570;SDS011;16814;52.118;11.436;2023-04-25T05:29:27;38.88;;;9.95;;
29570;SDS011;16814;52.118;11.436;2023-04-25T05:31:55;31.65;;;10.27;;
29570;SDS011;16814;52.118;11.436;2023-04-25T05:34:21;27.55;;;7.90;;
29570;SDS011;16814;52.118;11.436;2023-04-25T05:36:47;15.90;;;6.23;;
29570;SDS011;16814;52.118;11.436;2023-04-25T05:39:15;21.97;;;5.73;;
29570;SDS011;16814;52.118;11.436;2023-04-25T05:41:43;20.60;;;5.97;;
29570;SDS011;16814;52.118;11.436;2023-04-25T05:44:11;17.20;;;4.97;;
29570;SDS011;16814;52.118;11.436;2023-04-25T05:46:39;20.55;;;5.65;;
29570;SDS011;16814;52.118;11.436;2023-04-25T05:49:05;20.83;;;5.23;;
29570;SDS011;16814;52.118;11.436;2023-04-25T05:51:34;23.25;;;5.45;;
29570;SDS011;16814;52.118;11.436;2023-04-25T05:54:02;23.02;;;5.15;;
29570;SDS011;16814;52.118;11.436;2023-04-25T05:56:29;24.57;;;5.43;;
29570;SDS011;16814;52.118;11.436;2023-04-25T05:58:56;18.80;;;5.10;;
29570;SDS011;16814;52.118;11.436;2023-04-25T06:01:23;23.70;;;5.55;;
29570;SDS011;16814;52.118;11.436;2023-04-25T06:03:48;22.13;;;4.93;;
29570;SDS011;16814;52.118;11.436;2023-04-25T06:06:18;27.55;;;9.55;;
29570;SDS011;16814;52.118;11.436;2023-04-25T06:08:45;30.48;;;6.53;;
29570;SDS011;16814;52.118;11.436;2023-04-25T06:11:13;25.60;;;5.38;;
29570;SDS011;16814;52.118;11.436;2023-04-25T06:13:39;26.55;;;5.78;;
29570;SDS011;16814;52.118;11.436;2023-04-25T06:16:07;28.02;;;5.40;;
29570;SDS011;16814;52.118;11.436;2023-04-25T06:18:38;22.40;;;5.10;;
29570;SDS011;16814;52.118;11.436;2023-04-25T06:21:07;26.98;;;4.95;;
29570;SDS011;16814;52.118;11.436;2023-04-25T06:23:34;28.45;;;5.80;;
29570;SDS011;16814;52.118;11.436;2023-04-25T06:26:01;25.90;;;5.13;;
29570;SDS011;16814;52.118;11.436;2023-04-25T06:28:30;24.42;;;5.35;;
29570;SDS011;16814;52.118;11.436;2023-04-25T06:30:58;26.10;;;5.05;;
29570;SDS011;16814;52.118;11.436;2023-04-25T06:33:30;27.83;;;4.57;;
29570;SDS011;16814;52.118;11.436;2023-04-25T06:35:59;31.05;;;5.03;;
29570;SDS011;16814;52.118;11.436;2023-04-25T06:38:26;22.52;;;5.03;;
29570;SDS011;16814;52.118;11.436;2023-04-25T06:40:52;27.83;;;4.80;;
29570;SDS011;16814;52.118;11.436;2023-04-25T06:43:23;29.13;;;5.65;;
29570;SDS011;16814;52.118;11.436;2023-04-25T06:45:49;30.17;;;5.63;;
29570;SDS011;16814;52.118;11.436;2023-04-25T06:48:16;24.42;;;4.85;;
29570;SDS011;16814;52.118;11.436;2023-04-25T06:50:43;26.45;;;5.30;;
29570;SDS011;16814;52.118;11.436;2023-04-25T06:53:12;33.30;;;5.10;;
29570;SDS011;16814;52.118;11.436;2023-04-25T06:55:38;26.30;;;5.20;;
29570;SDS011;16814;52.118;11.436;2023-04-25T06:58:08;25.88;;;5.25;;
29570;SDS011;16814;52.118;11.436;2023-04-25T07:00:36;29.70;;;5.25;;
29570;SDS011;16814;52.118;11.436;2023-04-25T07:03:04;23.83;;;5.05;;
29570;SDS011;16814;52.118;11.436;2023-04-25T07:05:32;27.95;;;4.90;;
29570;SDS011;16814;52.118;11.436;2023-04-25T07:07:59;36.17;;;5.80;;
29570;SDS011;16814;52.118;11.436;2023-04-25T07:10:25;29.33;;;5.45;;
29570;SDS011;16814;52.118;11.436;2023-04-25T07:12:52;28.13;;;4.80;;
29570;SDS011;16814;52.118;11.436;2023-04-25T07:15:19;16.58;;;4.10;;
29570;SDS011;16814;52.118;11.436;2023-04-25T07:17:56;22.33;;;4.53;;
29570;SDS011;16814;52.118;11.436;2023-04-25T07:20:22;27.98;;;4.60;;
29570;SDS011;16814;52.118;11.436;2023-04-25T07:22:50;22.57;;;4.73;;
29570;SDS011;16814;52.118;11.436;2023-04-25T07:25:16;20.92;;;4.22;;
29570;SDS011;16814;52.118;11.436;2023-04-25T07:27:44;21.02;;;4.15;;
29570;SDS011;16814;52.118;11.436;2023-04-25T07:30:11;30.00;;;4.65;;
29570;SDS011;16814;52.118;11.436;2023-04-25T07:32:38;19.77;;;4.10;;
29570;SDS011;16814;52.118;11.436;2023-04-25T07:35:07;26.02;;;5.00;;
29570;SDS011;16814;52.118;11.436;2023-04-25T07:37:35;22.52;;;4.55;;
29570;SDS011;16814;52.118;11.436;2023-04-25T07:40:01;25.17;;;4.93;;
29570;SDS011;16814;52.118;11.436;2023-04-25T07:42:31;23.63;;;4.05;;
29570;SDS011;16814;52.118;11.436;2023-04-25T07:45:00;16.67;;;4.18;;
29570;SDS011;16814;52.118;11.436;2023-04-25T07:47:27;23.75;;;4.25;;
29570;SDS011;16814;52.118;11.436;2023-04-25T07:49:53;25.90;;;4.30;;
29570;SDS011;16814;52.118;11.436;2023-04-25T07:52:24;17.05;;;4.20;;
29570;SDS011;16814;52.118;11.436;2023-04-25T07:54:51;24.25;;;4.50;;
29570;SDS011;16814;52.118;11.436;2023-04-25T07:57:18;17.55;;;3.50;;
29570;SDS011;16814;52.118;11.436;2023-04-25T07:59:46;16.52;;;3.40;;
29570;SDS011;16814;52.118;11.436;2023-04-25T08:02:27;14.18;;;3.25;;
29570;SDS011;16814;52.118;11.436;2023-04-25T08:04:53;21.50;;;4.10;;
29570;SDS011;16814;52.118;11.436;2023-04-25T08:07:18;18.80;;;3.77;;
29570;SDS011;16814;52.118;11.436;2023-04-25T08:09:44;19.55;;;4.05;;
29570;SDS011;16814;52.118;11.436;2023-04-25T08:12:10;19.43;;;4.30;;
29570;SDS011;16814;52.118;11.436;2023-04-25T08:14:35;16.20;;;3.50;;
29570;SDS011;16814;52.118;11.436;2023-04-25T08:17:02;15.85;;;3.88;;
29570;SDS011;16814;52.118;11.436;2023-04-25T08:19:28;14.45;;;4.22;;
29570;SDS011;16814;52.118;11.436;2023-04-25T08:21:55;30.17;;;7.25;;
29570;SDS011;16814;52.118;11.436;2023-04-25T08:24:21;15.85;;;3.55;;
29570;SDS011;16814;52.118;11.436;2023-04-25T08:26:47;24.27;;;4.35;;
29570;SDS011;16814;52.118;11.436;2023-04-25T08:29:13;19.27;;;4.00;;
29570;SDS011;16814;52.118;11.436;2023-04-25T08:31:39;16.40;;;3.10;;
29570;SDS011;16814;52.118;11.436;2023-04-25T08:34:04;13.93;;;2.90;;
29570;SDS011;16814;52.118;11.436;2023-04-25T08:36:30;21.88;;;4.85;;
29570;SDS011;16814;52.118;11.436;2023-04-25T08:38:56;14.45;;;3.28;;
29570;SDS011;16814;52.118;11.436;2023-04-25T08:41:22;12.75;;;3.40;;
29570;SDS011;16814;52.118;11.436;2023-04-25T08:43:49;16.80;;;3.70;;
29570;SDS011;16814;52.118;11.436;2023-04-25T08:46:17;23.03;;;4.40;;
29570;SDS011;16814;52.118;11.436;2023-04-25T08:48:44;26.23;;;4.32;;
29570;SDS011;16814;52.118;11.436;2023-04-25T08:51:15;16.63;;;3.80;;
29570;SDS011;16814;52.118;11.436;2023-04-25T08:53:46;16.80;;;3.90;;
29570;SDS011;16814;52.118;11.436;2023-04-25T08:56:17;21.83;;;3.10;;
29570;SDS011;16814;52.118;11.436;2023-04-25T08:58:43;15.80;;;2.92;;
29570;SDS011;16814;52.118;11.436;2023-04-25T09:01:11;36.70;;;8.82;;
29570;SDS011;16814;52.118;11.436;2023-04-25T09:03:36;12.10;;;2.83;;
29570;SDS011;16814;52.118;11.436;2023-04-25T09:06:03;14.87;;;3.80;;
29570;SDS011;16814;52.118;11.436;2023-04-25T09:08:29;13.37;;;2.77;;
29570;SDS011;16814;52.118;11.436;2023-04-25T09:10:55;12.25;;;3.05;;
29570;SDS011;16814;52.118;11.436;2023-04-25T09:13:24;19.30;;;3.53;;
29570;SDS011;16814;52.118;11.436;2023-04-25T09:15:52;10.80;;;2.63;;
29570;SDS011;16814;52.118;11.436;2023-04-25T09:18:23;12.47;;;2.73;;
29570;SDS011;16814;52.118;11.436;2023-04-25T09:20:58;11.52;;;2.50;;
29570;SDS011;16814;52.118;11.436;2023-04-25T09:23:30;14.60;;;2.65;;
29570;SDS011;16814;52.118;11.436;2023-04-25T09:26:03;19.40;;;3.10;;
29570;SDS011;16814;52.118;11.436;2023-04-25T09:28:31;14.63;;;2.90;;
29570;SDS011;16814;52.118;11.436;2023-04-25T09:30:57;10.82;;;2.60;;
29570;SDS011;16814;52.118;11.436;2023-04-25T09:33:27;12.80;;;2.83;;
29570;SDS011;16814;52.118;11.436;2023-04-25T09:35:54;11.50;;;3.10;;
29570;SDS011;16814;52.118;11.436;2023-04-25T09:38:42;16.85;;;3.45;;
29570;SDS011;16814;52.118;11.436;2023-04-25T09:41:09;17.85;;;3.00;;
29570;SDS011;16814;52.118;11.436;2023-04-25T09:43:36;17.50;;;3.33;;
29570;SDS011;16814;52.118;11.436;2023-04-25T09:46:02;14.52;;;2.80;;
29570;SDS011;16814;52.118;11.436;2023-04-25T09:48:32;15.63;;;3.03;;
29570;SDS011;16814;52.118;11.436;2023-04-25T09:51:04;13.77;;;2.70;;
29570;SDS011;16814;52.118;11.436;2023-04-25T09:53:36;14.27;;;3.05;;
29570;SDS011;16814;52.118;11.436;2023-04-25T09:56:07;13.52;;;3.13;;
29570;SDS011;16814;52.118;11.436;2023-04-25T09:58:34;15.07;;;2.55;;
29570;SDS011;16814;52.118;11.436;2023-04-25T10:01:02;10.73;;;3.08;;
29570;SDS011;16814;52.118;11.436;2023-04-25T10:03:30;12.73;;;2.38;;
29570;SDS011;16814;52.118;11.436;2023-04-25T10:06:00;19.00;;;3.00;;
29570;SDS011;16814;52.118;11.436;2023-04-25T10:08:31;11.88;;;2.80;;
29570;SDS011;16814;52.118;11.436;2023-04-25T10:10:59;11.52;;;3.15;;
29570;SDS011;16814;52.118;11.436;2023-04-25T10:13:26;17.33;;;2.90;;
29570;SDS011;16814;52.118;11.436;2023-04-25T10:15:53;16.27;;;3.33;;
29570;SDS011;16814;52.118;11.436;2023-04-25T10:18:19;19.92;;;3.42;;
29570;SDS011;16814;52.118;11.436;2023-04-25T10:20:46;18.38;;;4.25;;
29570;SDS011;16814;52.118;11.436;2023-04-25T10:23:12;17.48;;;3.30;;
29570;SDS011;16814;52.118;11.436;2023-04-25T10:25:40;12.82;;;3.35;;
29570;SDS011;16814;52.118;11.436;2023-04-25T10:28:06;16.98;;;3.70;;
29570;SDS011;16814;52.118;11.436;2023-04-25T10:30:31;12.37;;;2.93;;
29570;SDS011;16814;52.118;11.436;2023-04-25T10:32:58;14.27;;;3.37;;
29570;SDS011;16814;52.118;11.436;2023-04-25T10:38:04;14.60;;;3.50;;
29570;SDS011;16814;52.118;11.436;2023-04-25T10:40:39;13.37;;;3.30;;
29570;SDS011;16814;52.118;11.436;2023-04-25T10:46:02;11.57;;;3.20;;
29570;SDS011;16814;52.118;11.436;2023-04-25T10:48:38;14.88;;;3.35;;
29570;SDS011;16814;52.118;11.436;2023-04-25T10:56:20;13.20;;;2.90;;
29570;SDS011;16814;52.118;11.436;2023-04-25T10:58:47;10.70;;;2.50;;
29570;SDS011;16814;52.118;11.436;2023-04-25T11:01:14;16.48;;;2.88;;
29570;SDS011;16814;52.118;11.436;2023-04-25T11:03:44;11.38;;;2.60;;
29570;SDS011;16814;52.118;11.436;2023-04-25T11:06:22;11.63;;;2.70;;
29570;SDS011;16814;52.118;11.436;2023-04-25T11:08:54;14.75;;;2.45;;
29570;SDS011;16814;52.118;11.436;2023-04-25T11:11:20;13.20;;;2.97;;
29570;SDS011;16814;52.118;11.436;2023-04-25T11:13:48;9.30;;;2.47;;
29570;SDS011;16814;52.118;11.436;2023-04-25T11:16:15;12.18;;;2.65;;
29570;SDS011;16814;52.118;11.436;2023-04-25T11:18:41;20.35;;;3.15;;
29570;SDS011;16814;52.118;11.436;2023-04-25T11:21:08;11.27;;;2.30;;
29570;SDS011;16814;52.118;11.436;2023-04-25T11:23:34;9.13;;;2.40;;
29570;SDS011;16814;52.118;11.436;2023-04-25T11:25:59;9.57;;;2.38;;
29570;SDS011;16814;52.118;11.436;2023-04-25T11:28:26;11.85;;;2.53;;
29570;SDS011;16814;52.118;11.436;2023-04-25T11:30:52;11.27;;;2.50;;
29570;SDS011;16814;52.118;11.436;2023-04-25T11:33:22;10.02;;;2.25;;
29570;SDS011;16814;52.118;11.436;2023-04-25T11:35:48;14.98;;;3.03;;
29570;SDS011;16814;52.118;11.436;2023-04-25T11:38:14;14.57;;;2.70;;
29570;SDS011;16814;52.118;11.436;2023-04-25T11:40:40;15.98;;;2.53;;
29570;SDS011;16814;52.118;11.436;2023-04-25T11:43:05;10.07;;;2.50;;
29570;SDS011;16814;52.118;11.436;2023-04-25T11:45:32;8.50;;;2.55;;
29570;SDS011;16814;52.118;11.436;2023-04-25T11:47:57;8.52;;;2.33;;
29570;SDS011;16814;52.118;11.436;2023-04-25T11:50:23;12.57;;;3.00;;
29570;SDS011;16814;52.118;11.436;2023-04-25T11:52:48;11.80;;;2.87;;
29570;SDS011;16814;52.118;11.436;2023-04-25T11:55:19;13.80;;;2.67;;
29570;SDS011;16814;52.118;11.436;2023-04-25T11:57:46;16.88;;;2.85;;
29570;SDS011;16814;52.118;11.436;2023-04-25T12:00:17;9.18;;;2.45;;
29570;SDS011;16814;52.118;11.436;2023-04-25T12:02:47;13.38;;;2.40;;
29570;SDS011;16814;52.118;11.436;2023-04-25T12:05:16;7.30;;;2.17;;
29570;SDS011;16814;52.118;11.436;2023-04-25T12:07:42;9.18;;;2.30;;
29570;SDS011;16814;52.118;11.436;2023-04-25T12:10:13;7.50;;;1.98;;
29570;SDS011;16814;52.118;11.436;2023-04-25T12:12:44;11.20;;;2.58;;
29570;SDS011;16814;52.118;11.436;2023-04-25T12:15:11;9.33;;;2.17;;
29570;SDS011;16814;52.118;11.436;2023-04-25T12:17:47;7.97;;;2.65;;
29570;SDS011;16814;52.118;11.436;2023-04-25T12:20:20;7.27;;;2.37;;
29570;SDS011;16814;52.118;11.436;2023-04-25T12:22:50;8.70;;;2.28;;
29570;SDS011;16814;52.118;11.436;2023-04-25T12:30:52;7.85;;;2.15;;
29570;SDS011;16814;52.118;11.436;2023-04-25T12:33:18;8.25;;;2.33;;
29570;SDS011;16814;52.118;11.436;2023-04-25T12:35:43;7.77;;;2.57;;
29570;SDS011;16814;52.118;11.436;2023-04-25T12:38:09;10.40;;;2.40;;
29570;SDS011;16814;52.118;11.436;2023-04-25T12:40:35;7.90;;;2.03;;
29570;SDS011;16814;52.118;11.436;2023-04-25T12:43:01;10.25;;;2.10;;
29570;SDS011;16814;52.118;11.436;2023-04-25T12:45:26;9.87;;;2.10;;
29570;SDS011;16814;52.118;11.436;2023-04-25T12:47:52;8.57;;;2.23;;
29570;SDS011;16814;52.118;11.436;2023-04-25T12:50:17;10.25;;;2.15;;
29570;SDS011;16814;52.118;11.436;2023-04-25T12:52:43;9.57;;;2.20;;
29570;SDS011;16814;52.118;11.436;2023-04-25T12:55:08;9.93;;;2.50;;
29570;SDS011;16814;52.118;11.436;2023-04-25T12:57:34;10.30;;;1.90;;
29570;SDS011;16814;52.118;11.436;2023-04-25T12:59:59;6.80;;;1.90;;
29570;SDS011;16814;52.118;11.436;2023-04-25T13:02:25;11.77;;;2.30;;
29570;SDS011;16814;52.118;11.436;2023-04-25T13:04:51;9.50;;;1.90;;
29570;SDS011;16814;52.118;11.436;2023-04-25T13:07:16;10.13;;;2.07;;
29570;SDS011;16814;52.118;11.436;2023-04-25T13:09:42;9.30;;;1.80;;
29570;SDS011;16814;52.118;11.436;2023-04-25T13:12:07;7.05;;;1.90;;
29570;SDS011;16814;52.118;11.436;2023-04-25T13:14:33;10.20;;;1.77;;
29570;SDS011;16814;52.118;11.436;2023-04-25T13:16:58;8.27;;;1.80;;
29570;SDS011;16814;52.118;11.436;2023-04-25T13:19:24;12.82;;;2.20;;
29570;SDS011;16814;52.118;11.436;2023-04-25T13:21:50;8.73;;;2.03;;
29570;SDS011;16814;52.118;11.436;2023-04-25T13:24:16;9.47;;;1.93;;
29570;SDS011;16814;52.118;11.436;2023-04-25T13:26:41;8.85;;;2.00;;
29570;SDS011;16814;52.118;11.436;2023-04-25T13:29:08;7.55;;;2.03;;
29570;SDS011;16814;52.118;11.436;2023-04-25T13:31:34;8.27;;;2.20;;
29570;SDS011;16814;52.118;11.436;2023-04-25T13:33:59;7.35;;;2.10;;
29570;SDS011;16814;52.118;11.436;2023-04-25T13:36:25;6.97;;;1.53;;
29570;SDS011;16814;52.118;11.436;2023-04-25T13:38:51;11.18;;;2.28;;
29570;SDS011;16814;52.118;11.436;2023-04-25T13:41:16;9.83;;;1.83;;
29570;SDS011;16814;52.118;11.436;2023-04-25T13:43:43;7.65;;;2.10;;
29570;SDS011;16814;52.118;11.436;2023-04-25T13:46:10;6.63;;;1.70;;
29570;SDS011;16814;52.118;11.436;2023-04-25T13:48:37;6.23;;;1.87;;
29570;SDS011;16814;52.118;11.436;2023-04-25T13:51:03;8.73;;;1.80;;
29570;SDS011;16814;52.118;11.436;2023-04-25T13:53:28;6.37;;;1.60;;
29570;SDS011;16814;52.118;11.436;2023-04-25T13:55:54;9.40;;;1.90;;
29570;SDS011;16814;52.118;11.436;2023-04-25T13:58:20;7.43;;;1.58;;
29570;SDS011;16814;52.118;11.436;2023-04-25T14:00:45;7.47;;;1.70;;
29570;SDS011;16814;52.118;11.436;2023-04-25T14:03:11;8.18;;;1.50;;
29570;SDS011;16814;52.118;11.436;2023-04-25T14:05:37;11.03;;;1.90;;
29570;SDS011;16814;52.118;11.436;2023-04-25T14:08:04;5.03;;;1.88;;
29570;SDS011;16814;52.118;11.436;2023-04-25T14:10:30;11.52;;;2.17;;
29570;SDS011;16814;52.118;11.436;2023-04-25T14:12:56;8.63;;;1.52;;
29570;SDS011;16814;52.118;11.436;2023-04-25T14:15:21;6.70;;;1.63;;
29570;SDS011;16814;52.118;11.436;2023-04-25T14:17:47;8.13;;;2.57;;
29570;SDS011;16814;52.118;11.436;2023-04-25T14:20:13;6.95;;;1.80;;
29570;SDS011;16814;52.118;11.436;2023-04-25T14:22:39;10.13;;;1.90;;
29570;SDS011;16814;52.118;11.436;2023-04-25T14:25:08;9.00;;;1.98;;
29570;SDS011;16814;52.118;11.436;2023-04-25T14:27:34;8.35;;;1.90;;
29570;SDS011;16814;52.118;11.436;2023-04-25T14:29:59;8.80;;;2.00;;
29570;SDS011;16814;52.118;11.436;2023-04-25T14:32:25;7.68;;;1.83;;
29570;SDS011;16814;52.118;11.436;2023-04-25T14:34:50;6.97;;;1.60;;
29570;SDS011;16814;52.118;11.436;2023-04-25T14:37:16;9.40;;;1.67;;
29570;SDS011;16814;52.118;11.436;2023-04-25T14:39:42;8.02;;;1.75;;
29570;SDS011;16814;52.118;11.436;2023-04-25T14:42:07;12.03;;;1.53;;